Data for 04/20/2010

Time Sea-Level Adjusted Pressure Absolute Pressure Temperature Relative Humidity Dew Point   
(mb) (inHg) (mb) (inHg) (C) (F) (%) (C) (F)
00:05 1015 29.97 844 24.92 10.3 50.6 57 2.2 35.9
00:10 1015 29.97 844 24.92 10.3 50.5 57 2.2 36
00:15 1015 29.97 844 24.92 10.2 50.3 57 2.1 35.8
00:20 1015 29.97 844 24.92 10.2 50.4 56 2 35.5
00:25 1015 29.97 844 24.92 10.3 50.5 56 1.9 35.4
00:30 1015 29.97 844 24.92 10.3 50.5 56 1.9 35.5
00:35 1015 29.97 844 24.92 10.3 50.5 56 1.9 35.3
00:40 1015 29.97 844 24.92 10.3 50.5 56 1.9 35.4
00:45 1015 29.97 844 24.92 10.1 50.2 56 1.9 35.4
00:50 1015 29.97 844 24.92 10.2 50.3 56 1.9 35.4
00:55 1015 29.97 844 24.92 10.1 50.1 56 1.8 35.3
01:00 1015 29.97 844 24.92 10 50 57 1.9 35.4
01:05 1015 29.97 844 24.92 9.9 49.9 57 1.9 35.4
01:10 1015 29.97 844 24.92 9.9 49.9 57 1.8 35.2
01:15 1015 29.97 844 24.92 9.9 49.9 57 1.8 35.2
01:20 1015 29.97 844 24.92 9.9 49.7 57 1.8 35.2
01:25 1015 29.97 844 24.92 9.8 49.6 57 1.7 35
01:30 1015 29.97 844 24.92 9.9 49.8 56 1.6 35
01:35 1015 29.97 844 24.92 9.9 49.8 57 1.8 35.2
01:40 1015 29.97 844 24.92 9.8 49.7 57 1.7 35
01:45 1015 29.97 844 24.92 9.8 49.6 57 1.7 35.1
01:50 1015 29.97 844 24.92 9.7 49.4 58 1.8 35.2
01:55 1015 29.97 844 24.92 9.5 49.1 58 1.8 35.2
02:00 1015 29.97 844 24.92 9.4 49 59 1.8 35.3
02:05 1015 29.97 844 24.92 9.4 48.9 59 1.8 35.3
02:10 1015 29.97 844 24.92 9.3 48.8 59 1.8 35.2
02:15 1015 29.97 844 24.92 9.3 48.8 58 1.6 34.9
02:20 1015 29.97 844 24.92 9.4 48.9 59 1.8 35.2
02:25 1015 29.97 844 24.92 9.3 48.7 59 1.8 35.2
02:30 1015 29.97 844 24.92 9.2 48.5 60 1.7 35.1
02:35 1015 29.97 844 24.92 9.1 48.5 60 1.7 35.1
02:40 1015 29.97 844 24.92 9.1 48.5 59 1.7 35
02:45 1015 29.97 844 24.92 9.2 48.5 59 1.7 35
02:50 1015 29.97 844 24.92 9.3 48.7 59 1.6 35
02:55 1015 29.97 844 24.92 9.3 48.7 59 1.7 35.1
03:00 1015 29.97 844 24.92 9.2 48.6 59 1.7 35
03:05 1014 29.94 844 24.92 9.2 48.5 60 1.7 35.1
03:10 1014 29.94 844 24.92 9.1 48.4 60 1.7 35.1
03:15 1015 29.97 844 24.92 9.1 48.3 60 1.8 35.2
03:20 1015 29.97 844 24.92 9 48.1 60 1.7 35.1
03:25 1014 29.94 844 24.92 9 48.2 60 1.7 35.1
03:30 1014 29.94 844 24.92 9 48.3 60 1.7 35
03:35 1015 29.97 844 24.92 9 48.3 60 1.7 35.1
03:40 1014 29.94 844 24.92 9.1 48.3 60 1.6 35
03:45 1015 29.97 844 24.92 9.1 48.4 59 1.6 34.9
03:50 1015 29.97 844 24.92 9.1 48.4 59 1.6 34.8
03:55 1015 29.97 844 24.92 9.2 48.5 59 1.6 34.8
04:00 1015 29.97 844 24.92 9.1 48.5 59 1.6 34.8
04:05 1015 29.97 844 24.92 9.1 48.4 59 1.7 35
04:10 1015 29.97 844 24.92 9.1 48.3 59 1.6 34.8
04:15 1015 29.97 844 24.92 9 48.2 60 1.6 34.8
04:20 1015 29.97 844 24.92 9 48.1 60 1.6 34.8
04:25 1015 29.97 844 24.92 9 48.2 59 1.5 34.7
04:30 1015 29.97 844 24.92 9 48.2 60 1.6 34.9
04:35 1015 29.97 844 24.92 9 48.1 60 1.7 35
04:40 1015 29.97 844 24.92 8.9 48.1 60 1.6 34.9
04:45 1015 29.97 844 24.92 8.9 48.1 60 1.6 34.8
04:50 1015 29.97 844 24.92 8.9 48 60 1.6 34.9
04:55 1015 29.97 844 24.92 8.8 47.9 60 1.6 34.9
05:00 1015 29.97 844 24.92 8.7 47.7 61 1.6 34.9
05:05 1015 29.97 844 24.92 8.6 47.5 61 1.7 35
05:10 1015 29.97 844 24.92 8.6 47.4 62 1.6 34.9
05:15 1015 29.97 844 24.92 8.5 47.3 62 1.7 35
05:20 1015 29.97 844 24.92 8.5 47.2 62 1.6 34.9
05:25 1015 29.97 844 24.92 8.5 47.2 62 1.6 34.9
05:30 1015 29.97 844 24.92 8.4 47.2 62 1.6 35
05:35 1015 29.97 844 24.92 8.4 47.1 62 1.7 35
05:40 1015 29.97 844 24.92 8.4 47 63 1.6 35
05:45 1015 29.97 844 24.92 8.4 47.1 62 1.6 34.9
05:50 1015 29.97 844 24.92 8.4 47.2 63 1.7 35.1
05:55 1015 29.97 844 24.92 8.3 47 63 1.7 35
06:00 1015 29.97 844 24.92 8.4 47.1 63 1.7 35
06:05 1014 29.94 844 24.92 8.4 47 63 1.7 35.1
06:10 1014 29.94 844 24.92 8.3 47 62 1.6 34.9
06:15 1014 29.94 844 24.92 8.3 47 63 1.6 34.9
06:20 1015 29.97 844 24.92 8.3 46.9 63 1.8 35.2
06:25 1015 29.97 844 24.92 8.2 46.8 63 1.6 34.9
06:30 1015 29.97 844 24.92 8.3 46.9 63 1.6 34.9
06:35 1015 29.97 844 24.92 8.3 46.9 63 1.6 34.9
06:40 1015 29.97 844 24.92 8.2 46.8 63 1.7 35
06:45 1015 29.97 844 24.92 8.2 46.7 63 1.7 35
06:50 1015 29.97 844 24.92 8.2 46.8 63 1.6 34.9
06:55 1015 29.97 844 24.92 8.3 46.9 63 1.7 35
07:00 1015 29.97 844 24.92 8.3 46.9 63 1.7 35
07:05 1015 29.97 844 24.92 8.4 47.1 63 1.7 35
07:10 1015 29.97 844 24.92 8.4 47 63 1.7 35.1
07:15 1015 29.97 844 24.92 8.3 47 63 1.8 35.2
07:20 1015 29.97 844 24.92 8.3 47 63 1.7 35
07:25 1015 29.97 844 24.92 8.5 47.2 62 1.7 35
07:30 1015 29.97 844 24.92 8.5 47.3 62 1.8 35.2
07:35 1015 29.97 844 24.92 8.6 47.6 61 1.6 35
07:40 1015 29.97 844 24.92 8.8 47.9 61 1.7 35.1
07:45 1015 29.97 844 24.92 9 48.3 60 1.7 35
07:50 1015 29.97 844 24.92 9.1 48.5 60 1.7 35.1
07:55 1015 29.97 844 24.92 9.3 48.7 59 1.8 35.2
08:00 1015 29.97 844 24.92 9.5 49 58 1.8 35.2
08:05 1015 29.97 844 24.92 9.6 49.2 58 1.9 35.3
08:10 1015 29.97 844 24.92 9.7 49.5 58 1.9 35.5
08:15 1015 29.97 844 24.92 9.8 49.7 58 1.9 35.4
08:20 1015 29.97 844 24.92 9.9 49.9 57 1.9 35.4
08:25 1015 29.97 844 24.92 10.1 50.1 57 1.9 35.4
08:30 1015 29.97 844 24.92 10.3 50.6 55 1.8 35.2
08:35 1015 29.97 844 24.92 10.4 50.7 55 1.7 35.1
08:40 1014 29.94 844 24.92 10.5 50.8 55 1.8 35.2
08:45 1014 29.94 844 24.92 10.5 51 55 1.9 35.4
08:50 1014 29.94 844 24.92 10.8 51.5 54 1.8 35.3
08:55 1014 29.94 844 24.92 11.2 52.2 52 1.9 35.3
09:00 1014 29.94 844 24.92 11.3 52.4 52 1.9 35.5
09:05 1014 29.94 844 24.92 11.4 52.6 51 1.8 35.3
09:10 1014 29.94 844 24.92 11.8 53.2 51 2.1 35.7
09:15 1014 29.94 844 24.92 11.9 53.3 51 2 35.6
09:20 1014 29.94 844 24.92 12 53.6 50 1.9 35.4
09:25 1014 29.94 844 24.92 12 53.6 50 1.9 35.5
09:30 1014 29.94 844 24.92 12.3 54.2 48 1.7 35.1
09:35 1014 29.94 844 24.92 12.3 54.1 49 2 35.6
09:40 1014 29.94 844 24.92 12.4 54.3 48 1.8 35.3
09:45 1014 29.94 844 24.92 12.6 54.6 48 1.9 35.4
09:50 1014 29.94 843 24.89 12.8 55.1 46 1.7 35
09:55 1014 29.94 843 24.89 12.9 55.2 47 1.9 35.5
10:00 1014 29.94 843 24.89 13.1 55.6 46 1.9 35.4
10:05 1014 29.94 843 24.89 12.9 55.2 46 1.7 35
10:10 1014 29.94 843 24.89 13.3 55.9 44 1.3 34.4
10:15 1014 29.94 843 24.89 13.6 56.5 44 1.7 35.1
10:20 1014 29.94 843 24.89 13.6 56.4 43 1.3 34.3
10:25 1014 29.94 843 24.89 13.5 56.3 43 1.4 34.5
10:30 1014 29.94 843 24.89 13.6 56.4 43 1.3 34.3
10:35 1014 29.94 843 24.89 13.5 56.2 43 1.1 34
10:40 1014 29.94 843 24.89 13.7 56.6 42 1.2 34.1
10:45 1014 29.94 843 24.89 13.7 56.6 44 1.6 34.8
10:50 1014 29.94 843 24.89 14 57.2 42 1.4 34.5
10:55 1014 29.94 843 24.89 14 57.2 43 1.5 34.8
11:00 1014 29.94 843 24.89 14.1 57.3 43 1.8 35.2
11:05 1014 29.94 843 24.89 14.2 57.5 43 1.8 35.3
11:10 1014 29.94 843 24.89 14.1 57.3 43 1.8 35.2
11:15 1014 29.94 843 24.89 14.1 57.4 42 1.6 34.9
11:20 1014 29.94 843 24.89 14.3 57.7 43 1.9 35.4
11:25 1013 29.91 843 24.89 14.3 57.7 43 2 35.6
11:30 1013 29.91 843 24.89 14.5 58.1 43 2 35.7
11:35 1013 29.91 843 24.89 14.9 58.7 41 2 35.5
11:40 1013 29.91 843 24.89 14.8 58.6 42 2.3 36.1
11:45 1013 29.91 843 24.89 15.4 59.8 40 2 35.5
11:50 1013 29.91 842 24.86 15.4 59.8 41 2.2 36
11:55 1013 29.91 842 24.86 15.2 59.3 41 2.1 35.8
12:00 1013 29.91 842 24.86 15.4 59.8 40 2 35.6
12:05 1013 29.91 842 24.86 15.5 59.9 41 2.3 36.1
12:10 1013 29.91 842 24.86 15.4 59.8 40 2.1 35.7
12:15 1013 29.91 842 24.86 15.6 60.1 39 2 35.5
12:20 1013 29.91 842 24.86 15.7 60.2 40 2.1 35.8
12:25 1013 29.91 842 24.86 15.8 60.5 39 2 35.7
12:30 1013 29.91 842 24.86 16 60.7 39 2.3 36.1
12:35 1013 29.91 842 24.86 16.1 61 39 2.2 35.9
12:40 1013 29.91 842 24.86 16.2 61.1 40 2.6 36.6
12:45 1013 29.91 842 24.86 16.2 61.1 39 2.3 36.1
12:50 1013 29.91 842 24.86 16.8 62.2 37 2.1 35.7
12:55 1012 29.88 842 24.86 17 62.7 38 2.6 36.7
13:00 1012 29.88 842 24.86 16.9 62.4 39 3.1 37.6
13:05 1012 29.88 842 24.86 16.6 61.9 39 2.7 36.8
13:10 1012 29.88 842 24.86 16.7 62.1 38 2.3 36.1
13:15 1012 29.88 842 24.86 16.7 62 40 3.2 37.8
13:20 1012 29.88 842 24.86 16.6 61.9 39 2.9 37.2
13:25 1012 29.88 841 24.83 17 62.6 39 2.9 37.2
13:30 1012 29.88 841 24.83 17 62.5 37 2.4 36.3
13:35 1012 29.88 841 24.83 17 62.6 38 2.7 36.8
13:40 1012 29.88 841 24.83 17.3 63.1 37 2.5 36.5
13:45 1012 29.88 841 24.83 17.3 63.1 37 2.6 36.7
13:50 1012 29.88 841 24.83 17.5 63.6 35 2.1 35.8
13:55 1012 29.88 841 24.83 17.7 63.9 35 2.1 35.7
14:00 1012 29.88 841 24.83 17.7 63.9 34 1.7 35
14:05 1012 29.88 841 24.83 18 64.3 34 1.9 35.4
14:10 1012 29.88 841 24.83 18.1 64.6 34 2 35.6
14:15 1012 29.88 841 24.83 18.1 64.5 33 1.7 35
14:20 1012 29.88 841 24.83 18 64.4 32 1.2 34.1
14:25 1012 29.88 841 24.83 18.1 64.6 32 1.5 34.6
14:30 1012 29.88 841 24.83 18.2 64.7 32 1.4 34.5
14:35 1012 29.88 841 24.83 18.7 65.6 31 1.2 34.2
14:40 1012 29.88 841 24.83 18.9 66 31 1.4 34.4
14:45 1012 29.88 841 24.83 18.9 66 31 1.5 34.7
14:50 1012 29.88 841 24.83 18.6 65.4 30 0.9 33.7
14:55 1012 29.88 841 24.83 18.3 64.9 31 1.1 33.9
15:00 1012 29.88 841 24.83 18.4 65.1 31 1.2 34.1
15:05 1012 29.88 841 24.83 18.6 65.4 29 0.5 32.9
15:10 1012 29.88 841 24.83 19.2 66.6 29 1 33.7
15:15 1012 29.88 841 24.83 19.2 66.5 28 0.2 32.4
15:20 1012 29.88 841 24.83 18.8 65.9 29 0.6 33.1
15:25 1012 29.88 841 24.83 18.9 66.1 29 0.6 33
15:30 1012 29.88 841 24.83 19 66.1 28 0.2 32.4
15:35 1011 29.85 841 24.83 19 66.2 29 0.5 33
15:40 1011 29.85 841 24.83 19.1 66.4 28 0.4 32.8
15:45 1011 29.85 840 24.81 19.1 66.3 29 0.5 32.9
15:50 1011 29.85 841 24.83 18.7 65.7 28 0 32.1
15:55 1011 29.85 840 24.81 18.8 65.8 28 -0.1 31.8
16:00 1011 29.85 840 24.81 18.8 65.9 28 -0 32
16:05 1011 29.85 840 24.81 18.8 65.9 29 0.7 33.3
16:10 1011 29.85 840 24.81 18.9 66 29 0.6 33.1
16:15 1011 29.85 840 24.81 19.1 66.3 29 0.7 33.3
16:20 1011 29.85 840 24.81 18.9 66.1 29 0.7 33.2
16:25 1011 29.85 840 24.81 18.9 65.9 29 0.5 32.9
16:30 1011 29.85 840 24.81 19.2 66.5 28 0.5 32.8
16:35 1011 29.85 840 24.81 19.3 66.8 29 0.8 33.4
16:40 1011 29.85 840 24.81 19 66.1 29 0.7 33.2
16:45 1011 29.85 840 24.81 18.8 65.9 29 0.4 32.8
16:50 1011 29.85 840 24.81 18.8 65.9 29 0.6 33
16:55 1011 29.85 840 24.81 19.1 66.4 29 0.7 33.2
17:00 1011 29.85 840 24.81 18.9 66 29 0.7 33.2
17:05 1011 29.85 840 24.81 18.8 65.9 30 1 33.9
17:10 1011 29.85 840 24.81 18.9 66 30 1.1 34
17:15 1010 29.83 840 24.81 18.8 65.8 31 1.4 34.5
17:20 1010 29.83 840 24.81 18.9 66.1 30 1.3 34.3
17:25 1010 29.83 840 24.81 18.7 65.7 31 1.6 34.9
17:30 1010 29.83 840 24.81 18.6 65.4 32 1.6 34.9
17:35 1010 29.83 840 24.81 18.4 65 32 1.6 34.9
17:40 1010 29.83 840 24.81 18.1 64.6 33 1.8 35.3
17:45 1010 29.83 840 24.81 17.9 64.2 34 1.9 35.4
17:50 1010 29.83 840 24.81 17.7 63.9 34 1.8 35.2
17:55 1010 29.83 840 24.81 17.8 64.1 34 1.7 35.1
18:00 1010 29.83 839 24.78 18 64.4 33 1.5 34.7
18:05 1010 29.83 839 24.78 18.1 64.5 33 1.6 34.8
18:10 1010 29.83 839 24.78 18.2 64.8 33 1.9 35.4
18:15 1010 29.83 839 24.78 18 64.5 33 1.7 35.1
18:20 1010 29.83 839 24.78 18 64.3 33 1.5 34.7
18:25 1010 29.83 839 24.78 17.9 64.3 33 1.7 35.1
18:30 1010 29.83 839 24.78 18 64.3 33 1.6 34.8
18:35 1010 29.83 839 24.78 17.8 64 33 1.6 34.9
18:40 1010 29.83 839 24.78 17.5 63.6 33 1.4 34.5
18:45 1010 29.83 839 24.78 17.4 63.4 34 1.4 34.4
18:50 1010 29.83 839 24.78 17.4 63.3 34 1.4 34.5
18:55 1010 29.83 839 24.78 17.3 63.1 34 1.4 34.6
19:00 1010 29.83 839 24.78 17.2 63 34 1.5 34.8
19:05 1010 29.83 839 24.78 17.1 62.8 34 1.3 34.4
19:10 1010 29.83 839 24.78 17 62.6 34 1.2 34.1
19:15 1010 29.83 839 24.78 16.9 62.4 35 1.3 34.4
19:20 1010 29.83 839 24.78 16.8 62.2 35 1.3 34.4
19:25 1010 29.83 839 24.78 16.6 61.9 35 1.3 34.4
19:30 1010 29.83 839 24.78 16.5 61.7 36 1.4 34.6
19:35 1010 29.83 839 24.78 16.4 61.5 36 1.4 34.6
19:40 1010 29.83 839 24.78 16.3 61.3 37 1.5 34.7
19:45 1010 29.83 839 24.78 16.1 61 37 1.4 34.5
19:50 1010 29.83 839 24.78 16 60.7 37 1.3 34.4
19:55 1010 29.83 839 24.78 15.9 60.5 37 1.4 34.5
20:00 1009 29.8 839 24.78 15.7 60.3 38 1.4 34.5
20:05 1009 29.8 839 24.78 15.5 60 38 1.4 34.5
20:10 1010 29.83 839 24.78 15.4 59.7 38 1.3 34.4
20:15 1009 29.8 839 24.78 15.3 59.5 38 1.3 34.4
20:20 1010 29.83 839 24.78 15.2 59.4 39 1.4 34.6
20:25 1010 29.83 839 24.78 15.1 59.2 39 1.3 34.4
20:30 1010 29.83 839 24.78 15 59 39 1.2 34.2
20:35 1010 29.83 839 24.78 14.9 58.9 39 1.3 34.4
20:40 1010 29.83 839 24.78 14.9 58.8 39 1.2 34.1
20:45 1010 29.83 839 24.78 14.9 58.8 39 1.2 34.1
20:50 1010 29.83 839 24.78 14.8 58.6 39 1.1 34
20:55 1010 29.83 839 24.78 14.7 58.5 39 1.1 34
21:00 1010 29.83 839 24.78 14.6 58.3 39 1 33.9
21:05 1010 29.83 839 24.78 14.5 58.2 40 1 33.8
21:10 1010 29.83 839 24.78 14.5 58.1 39 0.9 33.7
21:15 1010 29.83 839 24.78 14.5 58.1 39 0.9 33.6
21:20 1010 29.83 839 24.78 14.5 58 40 1 33.7
21:25 1010 29.83 839 24.78 14.4 57.9 40 1 33.8
21:30 1009 29.8 839 24.78 14.4 57.9 40 0.9 33.6
21:35 1010 29.83 839 24.78 14.3 57.7 40 1 33.8
21:40 1010 29.83 839 24.78 14.3 57.7 40 0.9 33.6
21:45 1009 29.8 839 24.78 14.2 57.6 40 1 33.8
21:50 1009 29.8 839 24.78 14.2 57.5 41 1.1 33.9
21:55 1009 29.8 839 24.78 14.1 57.3 41 0.9 33.7
22:00 1009 29.8 839 24.78 14.1 57.3 41 1.1 33.9
22:05 1009 29.8 838 24.75 14 57.1 41 1.1 33.9
22:10 1009 29.8 838 24.75 13.8 56.9 42 1.1 34
22:15 1009 29.8 838 24.75 13.8 56.8 42 1.2 34.1
22:20 1009 29.8 838 24.75 13.6 56.5 42 1.2 34.1
22:25 1009 29.8 838 24.75 13.6 56.5 42 1.2 34.1
22:30 1009 29.8 838 24.75 13.5 56.4 42 1.1 34
22:35 1009 29.8 838 24.75 13.5 56.4 43 1.1 34
22:40 1009 29.8 838 24.75 13.4 56.2 43 1.1 34
22:45 1009 29.8 838 24.75 13.4 56.1 43 1.1 34.1
22:50 1009 29.8 838 24.75 13.3 56 43 1.1 34
22:55 1009 29.8 838 24.75 13.3 55.9 43 1.1 34
23:00 1009 29.8 838 24.75 13.2 55.8 43 1 33.8
23:05 1009 29.8 838 24.75 13.1 55.7 44 1.1 34
23:10 1009 29.8 838 24.75 13 55.4 44 1.1 34
23:15 1009 29.8 838 24.75 13 55.3 44 1.1 34.1
23:20 1009 29.8 838 24.75 12.8 55.1 45 1.2 34.2
23:25 1009 29.8 838 24.75 12.8 55 45 1.2 34.1
23:30 1009 29.8 838 24.75 12.7 54.9 45 1.1 33.9
23:35 1009 29.8 838 24.75 12.6 54.6 46 1.2 34.2
23:40 1009 29.8 838 24.75 12.4 54.3 46 1.1 34
23:45 1009 29.8 838 24.75 12.3 54.2 47 1.3 34.4
23:50 1009 29.8 838 24.75 12.2 53.9 47 1.2 34.2
23:55 1009 29.8 838 24.75 12.2 54 47 1.2 34.1
24:00 1009 29.8 838 24.75 12.1 53.8 48 1.4 34.5